Time;durP1;ratioP1;P1;durP2;ratioP2;P2;SDS_P1;SDS_P2;PMS_P1;PMS_P2;Temp;Humidity;BMP_temperature;BMP_pressure;BME280_temperature;BME280_humidity;BME280_pressure;Samples;Min_cycle;Max_cycle;Signal;HPM_P1;HPM_P2
2023/04/19 00:01:52;;;;;;;1.37;1.30;;;9.00;97.30;;;;;;4995592;28;20282;-91
2023/04/19 00:04:19;;;;;;;4.17;2.77;;;9.00;97.30;;;;;;5010153;28;20184;-91
2023/04/19 00:06:45;;;;;;;3.00;2.50;;;9.00;97.30;;;;;;4992784;28;20219;-92
2023/04/19 00:09:10;;;;;;;2.57;2.40;;;8.90;97.30;;;;;;4993899;28;20852;-91
2023/04/19 00:11:36;;;;;;;5.73;1.87;;;8.90;97.30;;;;;;5002265;28;20424;-91
2023/04/19 00:14:01;;;;;;;29.77;3.70;;;8.80;97.30;;;;;;5006824;28;20732;-91
2023/04/19 00:16:27;;;;;;;2.70;1.57;;;8.80;97.30;;;;;;5000654;28;20213;-91
2023/04/19 00:18:52;;;;;;;3.03;2.83;;;8.80;97.30;;;;;;4994828;28;20220;-91
2023/04/19 00:21:18;;;;;;;5.70;2.50;;;8.70;97.30;;;;;;4986934;28;20650;-92
2023/04/19 00:23:43;;;;;;;2.73;2.53;;;8.70;97.30;;;;;;4998557;28;20667;-90
2023/04/19 00:26:10;;;;;;;2.63;1.73;;;8.70;97.30;;;;;;4995143;28;20224;-91
2023/04/19 00:28:35;;;;;;;6.50;2.27;;;8.60;97.30;;;;;;4992620;28;20200;-91
2023/04/19 00:31:01;;;;;;;2.60;2.40;;;8.60;97.30;;;;;;5004208;28;20933;-92
2023/04/19 00:33:26;;;;;;;5.53;2.97;;;8.50;97.30;;;;;;4995201;28;20252;-92
2023/04/19 00:35:52;;;;;;;1.60;1.53;;;8.50;97.30;;;;;;5005841;28;20229;-92
2023/04/19 00:38:17;;;;;;;1.93;1.83;;;8.40;97.30;;;;;;5014465;28;20197;-90
2023/04/19 00:40:43;;;;;;;9.33;4.17;;;8.40;97.30;;;;;;4992821;28;20181;-91
2023/04/19 00:43:08;;;;;;;2.07;1.93;;;8.30;97.30;;;;;;4992397;28;20219;-90
2023/04/19 00:45:35;;;;;;;10.33;3.97;;;8.30;97.30;;;;;;4998953;28;20685;-91
2023/04/19 00:48:01;;;;;;;2.63;2.30;;;8.30;97.30;;;;;;4999936;28;20203;-92
2023/04/19 00:50:27;;;;;;;2.03;1.87;;;8.20;97.30;;;;;;5001127;28;20951;-92
2023/04/19 00:52:54;;;;;;;6.20;2.07;;;8.20;97.30;;;;;;4994891;28;20181;-91
2023/04/19 00:55:20;;;;;;;3.10;2.90;;;8.10;97.30;;;;;;5015302;28;20416;-91
2023/04/19 00:57:46;;;;;;;4.07;1.57;;;8.10;97.30;;;;;;5006350;28;20444;-91
2023/04/19 01:00:12;;;;;;;3.70;1.90;;;8.10;97.30;;;;;;5000210;28;20951;-91
2023/04/19 01:02:38;;;;;;;5.03;1.60;;;8.10;97.30;;;;;;5000676;28;20424;-92
2023/04/19 01:05:03;;;;;;;1.70;1.60;;;8.00;97.30;;;;;;4997530;28;20463;-92
2023/04/19 01:07:29;;;;;;;7.00;2.10;;;8.00;97.30;;;;;;5002668;28;20273;-91
2023/04/19 01:09:55;;;;;;;1.30;1.13;;;8.00;97.30;;;;;;4998576;28;20213;-92
2023/04/19 01:12:21;;;;;;;4.20;2.67;;;8.00;97.30;;;;;;4993977;28;20289;-93
2023/04/19 01:14:48;;;;;;;1.47;1.37;;;8.00;97.30;;;;;;5009386;28;20181;-92
2023/04/19 01:17:15;;;;;;;2.60;2.43;;;8.00;97.30;;;;;;4997188;28;20455;-91
2023/04/19 01:19:41;;;;;;;5.03;2.53;;;7.90;97.30;;;;;;5003841;28;20427;-92
2023/04/19 01:22:09;;;;;;;3.50;3.30;;;7.90;97.30;;;;;;4996234;28;20431;-92
2023/04/19 01:24:34;;;;;;;33.93;3.63;;;7.90;97.30;;;;;;4997505;28;20662;-91
2023/04/19 01:27:01;;;;;;;2.33;2.13;;;7.90;97.30;;;;;;5007130;28;20450;-91
2023/04/19 01:29:27;;;;;;;4.20;3.10;;;7.80;97.30;;;;;;5005784;28;20173;-91
2023/04/19 01:31:52;;;;;;;2.23;1.67;;;7.90;97.30;;;;;;5002473;28;20420;-91
2023/04/19 01:34:18;;;;;;;2.63;2.43;;;7.90;97.30;;;;;;5002264;28;20496;-91
2023/04/19 01:36:44;;;;;;;2.07;1.90;;;7.80;97.30;;;;;;4995607;28;20205;-92
2023/04/19 01:39:10;;;;;;;4.10;2.23;;;7.80;97.30;;;;;;5023171;28;20815;-91
2023/04/19 01:41:36;;;;;;;2.30;1.47;;;7.80;97.30;;;;;;4998833;28;20180;-91
2023/04/19 01:44:01;;;;;;;10.73;3.60;;;7.90;97.30;;;;;;5006798;28;20184;-92
2023/04/19 01:46:27;;;;;;;2.67;2.03;;;7.80;97.30;;;;;;4994953;28;21008;-91
2023/04/19 01:48:52;;;;;;;1.67;1.57;;;7.80;97.30;;;;;;5005960;28;20260;-91
2023/04/19 01:51:20;;;;;;;2.60;2.40;;;7.80;97.30;;;;;;4993493;28;20189;-91
2023/04/19 01:53:46;;;;;;;1.30;1.20;;;7.70;97.30;;;;;;4999736;28;20181;-92
2023/04/19 01:56:11;;;;;;;12.50;3.57;;;7.70;97.30;;;;;;5003121;28;20420;-90
2023/04/19 01:58:37;;;;;;;5.27;3.67;;;7.70;97.30;;;;;;5018256;28;20192;-91
2023/04/19 02:01:02;;;;;;;2.17;2.00;;;7.70;97.30;;;;;;5003926;28;20656;-92
2023/04/19 02:03:28;;;;;;;3.60;2.80;;;7.70;97.30;;;;;;5013674;28;20181;-91
2023/04/19 02:05:54;;;;;;;2.77;2.50;;;7.60;97.30;;;;;;4989517;28;20205;-91
2023/04/19 02:08:19;;;;;;;3.07;2.37;;;7.60;97.30;;;;;;5001667;28;20576;-91
2023/04/19 02:10:45;;;;;;;7.40;3.90;;;7.60;97.30;;;;;;4999349;28;20269;-91
2023/04/19 02:13:10;;;;;;;7.67;3.60;;;7.60;97.30;;;;;;5007840;28;20423;-90
2023/04/19 02:15:36;;;;;;;2.70;2.50;;;7.60;97.30;;;;;;4997031;28;20192;-91
2023/04/19 02:18:05;;;;;;;13.40;2.63;;;7.60;97.30;;;;;;5003706;28;20255;-92
2023/04/19 02:20:31;;;;;;;1.50;1.40;;;7.50;97.30;;;;;;5015959;28;20200;-92
2023/04/19 02:22:56;;;;;;;14.23;3.60;;;7.60;97.30;;;;;;5026390;28;20439;-91
2023/04/19 02:25:22;;;;;;;10.10;4.73;;;7.50;97.30;;;;;;5000406;28;20308;-92
2023/04/19 02:27:47;;;;;;;7.17;2.73;;;7.50;97.30;;;;;;4995552;28;20690;-91
2023/04/19 02:30:14;;;;;;;7.20;3.57;;;7.50;97.30;;;;;;5009200;28;20205;-91
2023/04/19 02:32:40;;;;;;;1.73;1.60;;;7.50;97.30;;;;;;5010501;28;20892;-92
2023/04/19 02:35:05;;;;;;;8.63;2.57;;;7.50;97.30;;;;;;5014156;28;20188;-92
2023/04/19 02:37:31;;;;;;;2.73;2.47;;;7.40;97.30;;;;;;5005886;28;20574;-91
2023/04/19 02:39:56;;;;;;;2.27;2.10;;;7.40;97.30;;;;;;4994042;28;20634;-92
2023/04/19 02:42:22;;;;;;;3.53;2.20;;;7.40;97.30;;;;;;5007729;28;20177;-92
2023/04/19 02:44:47;;;;;;;5.77;2.60;;;7.40;97.30;;;;;;5018491;28;20209;-91
2023/04/19 02:47:13;;;;;;;2.23;2.07;;;7.40;97.30;;;;;;5003917;28;20705;-91
2023/04/19 02:49:40;;;;;;;4.97;2.13;;;7.30;97.30;;;;;;5002524;28;20181;-91
2023/04/19 02:52:06;;;;;;;2.40;2.00;;;7.30;97.30;;;;;;4990637;28;20334;-91
2023/04/19 02:54:32;;;;;;;2.50;2.30;;;7.20;97.30;;;;;;4992427;28;20941;-91
2023/04/19 02:56:57;;;;;;;2.93;2.80;;;7.20;97.30;;;;;;5007376;28;20204;-91
2023/04/19 02:59:23;;;;;;;2.20;1.30;;;7.10;97.30;;;;;;4987616;28;20416;-92
2023/04/19 03:01:49;;;;;;;5.57;3.33;;;7.10;97.30;;;;;;5005206;28;20227;-90
2023/04/19 03:04:15;;;;;;;6.20;1.97;;;7.10;97.30;;;;;;4987491;28;20643;-91
2023/04/19 03:06:43;;;;;;;5.70;2.40;;;7.10;97.30;;;;;;4998460;28;20517;-91
2023/04/19 03:09:09;;;;;;;4.53;3.20;;;7.10;97.30;;;;;;4998108;28;20415;-91
2023/04/19 03:11:35;;;;;;;5.53;3.70;;;7.10;97.30;;;;;;5008205;28;20425;-91
2023/04/19 03:14:01;;;;;;;2.80;2.60;;;7.00;97.30;;;;;;4998729;28;20251;-92
2023/04/19 03:16:29;;;;;;;3.13;2.20;;;7.00;97.30;;;;;;5003717;28;20964;-91
2023/04/19 03:18:54;;;;;;;2.77;2.40;;;7.00;97.30;;;;;;4994657;28;20601;-91
2023/04/19 03:21:20;;;;;;;2.13;1.97;;;7.00;97.30;;;;;;4995970;28;20807;-91
2023/04/19 03:23:45;;;;;;;3.10;2.73;;;6.90;97.30;;;;;;4997442;28;20185;-92
2023/04/19 03:26:11;;;;;;;6.40;2.63;;;6.90;97.30;;;;;;4998563;28;20209;-91
2023/04/19 03:28:36;;;;;;;2.37;2.17;;;6.90;97.30;;;;;;4998334;28;20177;-91
2023/04/19 03:31:02;;;;;;;5.90;1.90;;;6.90;97.30;;;;;;5010988;28;20208;-91
2023/04/19 03:33:27;;;;;;;4.07;2.60;;;6.90;97.30;;;;;;5001464;28;20180;-91
2023/04/19 03:35:53;;;;;;;2.90;2.70;;;6.90;97.30;;;;;;4992957;28;20181;-92
2023/04/19 03:38:18;;;;;;;4.30;1.60;;;6.80;97.30;;;;;;4996815;28;20689;-92
2023/04/19 03:40:44;;;;;;;3.60;2.23;;;6.80;97.30;;;;;;5001493;28;20240;-91
2023/04/19 03:43:09;;;;;;;1.93;1.83;;;6.80;97.30;;;;;;4996582;28;20684;-91
2023/04/19 03:45:35;;;;;;;10.87;3.03;;;6.80;97.30;;;;;;4996971;28;20685;-91
2023/04/19 03:48:00;;;;;;;2.90;1.60;;;6.80;97.30;;;;;;4995861;28;20204;-92
2023/04/19 03:50:26;;;;;;;2.43;2.10;;;6.80;97.30;;;;;;5000540;28;20604;-91
2023/04/19 03:52:51;;;;;;;2.43;2.23;;;6.80;97.30;;;;;;4998059;28;20254;-92
2023/04/19 03:55:17;;;;;;;1.63;1.53;;;6.70;97.30;;;;;;5004351;28;20594;-91
2023/04/19 03:57:42;;;;;;;2.33;2.13;;;6.70;97.30;;;;;;5011290;28;20660;-91
2023/04/19 04:00:10;;;;;;;1.33;1.23;;;6.70;97.30;;;;;;5004859;28;20185;-91
2023/04/19 04:02:37;;;;;;;1.13;1.13;;;6.70;97.30;;;;;;4995659;28;20185;-92
2023/04/19 04:05:03;;;;;;;3.30;3.10;;;6.70;97.30;;;;;;5006526;28;20456;-92
2023/04/19 04:07:28;;;;;;;1.43;1.37;;;6.70;97.30;;;;;;5001754;28;20519;-92
2023/04/19 04:09:54;;;;;;;1.77;1.67;;;6.70;97.30;;;;;;5009195;28;20232;-91
2023/04/19 04:12:19;;;;;;;3.60;2.40;;;6.70;97.30;;;;;;5005658;28;20205;-92
2023/04/19 04:14:45;;;;;;;2.33;2.13;;;6.70;97.30;;;;;;4997485;28;20203;-91
2023/04/19 04:17:10;;;;;;;1.87;1.30;;;6.70;97.30;;;;;;4996760;28;20701;-91
2023/04/19 04:19:36;;;;;;;2.77;1.83;;;6.80;97.30;;;;;;4995179;28;20181;-91
2023/04/19 04:22:02;;;;;;;2.07;1.93;;;6.70;97.30;;;;;;4995296;28;20236;-91
2023/04/19 04:24:29;;;;;;;1.20;1.10;;;6.70;97.30;;;;;;4992654;28;20184;-92
2023/04/19 04:26:56;;;;;;;2.27;1.50;;;6.70;97.30;;;;;;4998843;28;20522;-91
2023/04/19 04:29:22;;;;;;;0.90;0.80;;;6.70;97.30;;;;;;4992732;28;20428;-92
2023/04/19 04:31:47;;;;;;;1.23;1.13;;;6.70;97.30;;;;;;4999327;28;20408;-91
2023/04/19 04:34:13;;;;;;;3.00;2.80;;;6.70;97.30;;;;;;5010007;28;20174;-90
2023/04/19 04:36:40;;;;;;;1.53;1.43;;;6.70;97.30;;;;;;4995901;28;20208;-92
2023/04/19 04:39:10;;;;;;;1.83;1.73;;;6.70;97.30;;;;;;5012264;28;20184;-92
2023/04/19 04:41:36;;;;;;;1.57;1.43;;;6.70;97.30;;;;;;5005180;28;20416;-92
2023/04/19 04:44:03;;;;;;;1.77;1.67;;;6.60;97.30;;;;;;4997011;28;20442;-91
2023/04/19 04:46:29;;;;;;;1.10;1.00;;;6.60;97.30;;;;;;4997710;28;20220;-91
2023/04/19 04:48:54;;;;;;;1.97;1.87;;;6.60;97.30;;;;;;4996930;28;20420;-92
2023/04/19 04:51:20;;;;;;;1.40;1.20;;;6.60;97.30;;;;;;4999511;28;20180;-92
2023/04/19 04:53:46;;;;;;;1.43;1.10;;;6.60;97.30;;;;;;5008889;28;20184;-91
2023/04/19 04:56:11;;;;;;;1.30;1.20;;;6.60;97.30;;;;;;5011464;28;20181;-91
2023/04/19 04:58:37;;;;;;;0.97;0.87;;;6.60;97.30;;;;;;4996555;28;20959;-92
2023/04/19 05:01:02;;;;;;;2.90;1.00;;;6.50;97.30;;;;;;5002784;28;20177;-92
2023/04/19 05:03:28;;;;;;;1.30;1.20;;;6.50;97.30;;;;;;4998891;28;20220;-91
2023/04/19 05:05:54;;;;;;;1.87;1.23;;;6.50;97.30;;;;;;5002265;28;20189;-91
2023/04/19 05:08:19;;;;;;;1.77;1.27;;;6.50;96.80;;;;;;4991513;28;20575;-92
2023/04/19 05:10:45;;;;;;;1.30;1.20;;;6.40;96.80;;;;;;4979530;28;20228;-91
2023/04/19 05:13:11;;;;;;;2.23;1.07;;;6.40;96.60;;;;;;4977086;28;20244;-90
2023/04/19 05:15:36;;;;;;;1.10;1.00;;;6.40;96.90;;;;;;4981670;28;20189;-92
2023/04/19 05:18:02;;;;;;;18.90;2.00;;;6.40;96.30;;;;;;4987089;28;20210;-93
2023/04/19 05:20:28;;;;;;;0.80;0.80;;;6.30;96.10;;;;;;4988015;28;20186;-92
2023/04/19 05:22:58;;;;;;;1.10;1.00;;;6.30;96.30;;;;;;4974922;28;20187;-92
2023/04/19 05:25:23;;;;;;;1.03;0.97;;;6.20;96.30;;;;;;4982838;28;20520;-92
2023/04/19 05:27:49;;;;;;;1.10;1.00;;;6.20;96.20;;;;;;4992680;28;20437;-91
2023/04/19 05:30:15;;;;;;;1.00;0.90;;;6.20;96.50;;;;;;4984668;28;20175;-92
2023/04/19 05:32:41;;;;;;;1.00;0.90;;;6.20;96.40;;;;;;4988264;28;20178;-91
2023/04/19 05:35:07;;;;;;;1.37;1.27;;;6.20;96.60;;;;;;4977438;28;20193;-91
2023/04/19 05:37:32;;;;;;;1.53;1.47;;;6.20;96.50;;;;;;4986573;28;20449;-92
2023/04/19 05:39:58;;;;;;;1.87;1.77;;;6.20;96.40;;;;;;4974375;28;20485;-90
2023/04/19 05:42:23;;;;;;;1.30;1.17;;;6.20;96.00;;;;;;4974257;28;20174;-90
2023/04/19 05:44:49;;;;;;;0.97;0.93;;;6.20;95.70;;;;;;4973825;28;20760;-92
2023/04/19 05:47:16;;;;;;;2.40;1.60;;;6.20;95.80;;;;;;4975574;28;20277;-91
2023/04/19 05:49:41;;;;;;;2.73;1.40;;;6.20;95.80;;;;;;4974305;28;20178;-92
2023/04/19 05:52:07;;;;;;;1.73;1.63;;;6.20;95.50;;;;;;4980509;28;20949;-91
2023/04/19 05:54:34;;;;;;;1.00;0.90;;;6.20;95.50;;;;;;4986569;28;20193;-92
2023/04/19 05:57:03;;;;;;;1.00;0.90;;;6.20;96.10;;;;;;4978830;28;20202;-91
2023/04/19 05:59:28;;;;;;;3.07;1.87;;;6.20;96.30;;;;;;4982642;28;20628;-92
2023/04/19 06:01:55;;;;;;;1.20;1.10;;;6.20;96.00;;;;;;4972649;28;20923;-91
2023/04/19 06:04:20;;;;;;;1.97;1.73;;;6.20;95.70;;;;;;4987639;28;20179;-92
2023/04/19 06:06:46;;;;;;;3.23;1.57;;;6.20;95.90;;;;;;4971657;28;20469;-91
2023/04/19 06:09:12;;;;;;;1.07;0.97;;;6.30;96.20;;;;;;4980319;28;20573;-91
2023/04/19 06:11:38;;;;;;;1.00;0.90;;;6.30;96.30;;;;;;5002254;28;20227;-91
2023/04/19 06:14:04;;;;;;;1.10;1.00;;;6.40;96.90;;;;;;4995163;28;20793;-91
2023/04/19 06:16:30;;;;;;;1.60;1.50;;;6.50;96.80;;;;;;4995781;28;20284;-91
2023/04/19 06:18:56;;;;;;;1.63;1.53;;;6.50;96.10;;;;;;4997015;28;20458;-91
2023/04/19 06:21:22;;;;;;;1.83;1.73;;;6.50;96.20;;;;;;5008804;28;20183;-90
2023/04/19 06:23:47;;;;;;;1.03;0.93;;;6.50;97.00;;;;;;4998057;28;20932;-89
2023/04/19 06:26:13;;;;;;;1.27;1.17;;;6.50;96.60;;;;;;4996980;28;20252;-90
2023/04/19 06:28:38;;;;;;;1.20;1.10;;;6.60;96.70;;;;;;4997315;28;20216;-91
2023/04/19 06:31:04;;;;;;;1.10;1.00;;;6.60;96.50;;;;;;4991760;28;20665;-89
2023/04/19 06:33:30;;;;;;;1.17;1.07;;;6.70;95.70;;;;;;4996460;28;20212;-89
2023/04/19 06:35:55;;;;;;;1.47;1.30;;;6.70;95.50;;;;;;5002363;28;20177;-91
2023/04/19 06:38:21;;;;;;;1.50;1.40;;;6.70;94.90;;;;;;5000086;28;20519;-90
2023/04/19 06:40:46;;;;;;;1.13;1.03;;;6.80;94.60;;;;;;4990163;28;20235;-89
2023/04/19 06:43:12;;;;;;;1.07;1.00;;;6.80;95.10;;;;;;4995059;28;20185;-91
2023/04/19 06:45:37;;;;;;;1.20;1.10;;;6.90;94.80;;;;;;4995328;28;20708;-90
2023/04/19 06:48:03;;;;;;;2.40;1.57;;;7.00;94.90;;;;;;4994712;28;20705;-90
2023/04/19 06:50:28;;;;;;;0.80;0.70;;;7.00;94.90;;;;;;4996279;28;20646;-91
2023/04/19 06:52:54;;;;;;;0.90;0.80;;;7.10;94.80;;;;;;5020759;28;20535;-90
2023/04/19 06:55:20;;;;;;;5.63;2.67;;;7.20;94.10;;;;;;4994914;28;20180;-91
2023/04/19 06:57:45;;;;;;;1.33;1.00;;;7.30;93.70;;;;;;4991289;28;20200;-91
2023/04/19 07:00:12;;;;;;;0.90;0.80;;;7.40;94.10;;;;;;4995896;28;20185;-91
2023/04/19 07:02:38;;;;;;;0.90;0.80;;;7.50;94.60;;;;;;5013079;28;20235;-91
2023/04/19 07:05:04;;;;;;;1.67;1.57;;;7.60;94.30;;;;;;4996249;28;20468;-91
2023/04/19 07:07:29;;;;;;;0.90;0.80;;;7.70;93.50;;;;;;4996177;28;20203;-90
2023/04/19 07:09:55;;;;;;;0.90;0.80;;;7.70;93.10;;;;;;4984894;28;20569;-91
2023/04/19 07:12:20;;;;;;;1.23;1.13;;;7.70;93.20;;;;;;4973448;28;20170;-92
2023/04/19 07:14:46;;;;;;;1.43;1.33;;;7.80;93.60;;;;;;4981663;28;20698;-91
2023/04/19 07:17:13;;;;;;;1.70;1.60;;;7.90;93.00;;;;;;4974181;28;20690;-91
2023/04/19 07:19:38;;;;;;;1.43;1.33;;;8.00;93.90;;;;;;4973270;28;20193;-91
2023/04/19 07:22:05;;;;;;;1.40;1.30;;;8.10;93.80;;;;;;4975300;28;20427;-90
2023/04/19 07:24:30;;;;;;;3.30;1.50;;;8.10;92.70;;;;;;4969669;28;20182;-90
2023/04/19 07:26:56;;;;;;;1.30;1.20;;;8.10;92.30;;;;;;4977156;28;21058;-90
2023/04/19 07:29:22;;;;;;;1.10;1.00;;;8.10;91.70;;;;;;4980058;28;20225;-91
2023/04/19 07:31:47;;;;;;;1.40;1.30;;;8.10;92.00;;;;;;4974356;28;20183;-90
2023/04/19 07:34:13;;;;;;;2.10;1.30;;;8.10;92.00;;;;;;4969240;28;20312;-90
2023/04/19 07:36:38;;;;;;;2.00;1.10;;;8.20;90.60;;;;;;4979045;28;20241;-89
2023/04/19 07:39:04;;;;;;;1.63;1.23;;;8.30;92.10;;;;;;4968130;28;20182;-91
2023/04/19 07:41:31;;;;;;;1.27;1.17;;;8.30;90.30;;;;;;4968707;28;20723;-89
2023/04/19 07:44:39;;;;;;;1.77;1.67;;;8.30;90.20;;;;;;4965748;28;20189;-90
2023/04/19 07:47:30;;;;;;;2.03;1.30;;;8.40;91.00;;;;;;4984561;28;20522;-90
2023/04/19 07:50:40;;;;;;;1.10;1.00;;;8.40;90.50;;;;;;4972119;28;20419;-88
2023/04/19 07:53:30;;;;;;;1.20;1.10;;;8.50;91.30;;;;;;4967828;28;20425;-90
2023/04/19 07:55:59;;;;;;;1.40;1.30;;;8.60;90.70;;;;;;4986170;28;20465;-90
2023/04/19 07:59:11;;;;;;;1.30;1.20;;;8.70;91.30;;;;;;4971980;28;20469;-90
2023/04/19 08:01:40;;;;;;;16.73;2.37;;;8.70;90.80;;;;;;4970538;28;20426;-89
2023/04/19 08:04:09;;;;;;;1.23;1.13;;;8.90;92.00;;;;;;4975942;28;20424;-90
2023/04/19 08:06:41;;;;;;;2.30;1.37;;;9.10;92.00;;;;;;4980387;28;20475;-90
2023/04/19 08:09:10;;;;;;;6.47;1.10;;;9.20;91.10;;;;;;4984800;28;20440;-90
2023/04/19 08:11:49;;;;;;;1.07;0.97;;;9.20;89.00;;;;;;4994036;28;20523;-90
2023/04/19 08:14:18;;;;;;;0.83;0.73;;;9.20;88.30;;;;;;4994095;28;20485;-91
2023/04/19 08:17:07;;;;;;;5.07;2.90;;;9.30;88.90;;;;;;4998422;28;20535;-89
2023/04/19 08:19:32;;;;;;;0.90;0.80;;;9.30;87.70;;;;;;5007016;28;20457;-90
2023/04/19 08:21:58;;;;;;;1.63;1.10;;;9.20;87.00;;;;;;5000275;28;20455;-91
2023/04/19 08:24:24;;;;;;;1.47;1.37;;;9.20;87.30;;;;;;4993656;28;20275;-89
2023/04/19 08:26:52;;;;;;;9.70;1.33;;;9.30;88.30;;;;;;4992506;28;20673;-91
2023/04/19 08:29:24;;;;;;;1.83;1.73;;;9.50;88.50;;;;;;4995266;28;20181;-89
2023/04/19 08:31:49;;;;;;;1.83;1.63;;;9.60;89.60;;;;;;4993854;28;20590;-92
2023/04/19 08:34:17;;;;;;;1.93;1.70;;;9.70;88.80;;;;;;4994294;28;20458;-90
2023/04/19 08:36:50;;;;;;;2.13;1.33;;;9.90;88.20;;;;;;5016553;28;20697;-91
2023/04/19 08:39:19;;;;;;;1.60;1.20;;;10.00;88.50;;;;;;5000610;28;20455;-89
2023/04/19 08:41:48;;;;;;;1.10;1.00;;;10.10;88.20;;;;;;4996372;28;20424;-89
2023/04/19 08:44:38;;;;;;;1.00;0.90;;;10.30;88.50;;;;;;4997448;28;20987;-90
2023/04/19 08:47:19;;;;;;;1.17;1.07;;;10.20;85.90;;;;;;5008687;28;20486;-89
2023/04/19 08:49:51;;;;;;;3.60;1.33;;;10.10;85.60;;;;;;4998482;28;20805;-90
2023/04/19 08:52:20;;;;;;;1.30;1.27;;;10.20;86.70;;;;;;5018939;28;20421;-90
2023/04/19 08:54:50;;;;;;;1.70;1.57;;;10.20;87.00;;;;;;5002342;28;20459;-89
2023/04/19 08:57:18;;;;;;;6.80;2.03;;;10.30;87.70;;;;;;4993796;28;20436;-89
2023/04/19 08:59:54;;;;;;;4.30;1.47;;;10.40;87.00;;;;;;5001692;28;20438;-89
2023/04/19 09:02:20;;;;;;;1.70;1.60;;;10.50;87.10;;;;;;4998345;28;20946;-90
2023/04/19 09:04:49;;;;;;;1.00;0.90;;;10.70;87.30;;;;;;5003852;28;20425;-90
2023/04/19 09:07:31;;;;;;;1.63;1.10;;;10.80;85.60;;;;;;5015400;28;20440;-92
2023/04/19 09:10:11;;;;;;;2.60;1.47;;;10.80;84.70;;;;;;5005288;28;20466;-89
2023/04/19 09:12:37;;;;;;;1.33;1.23;;;11.00;86.90;;;;;;5004165;28;20466;-90
2023/04/19 09:15:07;;;;;;;1.30;1.10;;;11.10;85.30;;;;;;5003016;28;20413;-89
2023/04/19 09:17:33;;;;;;;2.40;2.20;;;11.20;85.30;;;;;;4994217;28;20443;-90
2023/04/19 09:19:59;;;;;;;1.03;1.00;;;11.20;84.70;;;;;;4996331;28;20423;-90
2023/04/19 09:22:25;;;;;;;1.93;1.40;;;11.20;84.60;;;;;;5001543;28;20796;-90
2023/04/19 09:24:51;;;;;;;1.47;1.20;;;11.40;85.00;;;;;;5012859;28;20177;-90
2023/04/19 09:27:37;;;;;;;1.20;1.10;;;11.40;83.50;;;;;;5004721;28;20197;-90
2023/04/19 09:30:05;;;;;;;1.13;1.03;;;11.50;85.30;;;;;;5008368;28;20427;-89
2023/04/19 09:32:45;;;;;;;1.93;1.83;;;11.60;84.40;;;;;;4995545;28;20506;-91
2023/04/19 09:35:11;;;;;;;1.10;1.10;;;11.80;83.10;;;;;;5002343;28;20936;-90
2023/04/19 09:37:40;;;;;;;1.20;1.07;;;11.80;82.30;;;;;;5007103;28;20592;-89
2023/04/19 09:40:26;;;;;;;1.50;0.87;;;11.80;82.70;;;;;;5010557;28;20173;-91
2023/04/19 09:42:53;;;;;;;4.50;2.17;;;11.90;82.50;;;;;;5022219;28;21017;-92
2023/04/19 09:45:19;;;;;;;1.10;1.00;;;12.00;82.50;;;;;;5008101;28;20466;-92
2023/04/19 09:47:44;;;;;;;1.00;0.90;;;11.90;82.10;;;;;;5004033;28;20436;-92
2023/04/19 09:50:10;;;;;;;2.30;1.27;;;11.90;82.10;;;;;;5001531;28;20231;-91
2023/04/19 09:52:36;;;;;;;1.20;1.20;;;11.90;82.30;;;;;;5012455;28;20182;-91
2023/04/19 09:55:05;;;;;;;6.00;0.93;;;12.00;81.20;;;;;;5039013;28;20470;-93
2023/04/19 09:57:32;;;;;;;1.00;0.90;;;12.00;81.50;;;;;;5031060;28;20470;-91
2023/04/19 09:59:59;;;;;;;1.70;1.47;;;12.10;82.60;;;;;;5004397;28;20455;-91
2023/04/19 10:02:29;;;;;;;1.17;1.07;;;12.10;82.00;;;;;;4996331;28;20420;-90
2023/04/19 10:04:57;;;;;;;1.10;1.00;;;12.20;82.30;;;;;;4997981;28;20671;-89
2023/04/19 10:07:26;;;;;;;1.03;1.03;;;12.20;82.80;;;;;;4997242;28;20443;-90
2023/04/19 10:09:54;;;;;;;5.80;1.40;;;12.30;81.20;;;;;;5003522;28;20483;-90
2023/04/19 10:12:24;;;;;;;4.43;1.50;;;12.30;81.90;;;;;;5009840;28;20500;-88
2023/04/19 10:14:50;;;;;;;2.70;1.27;;;12.30;82.00;;;;;;5006405;28;20461;-90
2023/04/19 10:17:16;;;;;;;1.00;0.90;;;12.40;81.60;;;;;;5019200;28;20522;-89
2023/04/19 10:19:43;;;;;;;1.27;1.10;;;12.50;81.90;;;;;;5015542;28;20181;-89
2023/04/19 10:22:09;;;;;;;1.10;1.00;;;12.60;81.50;;;;;;5011835;28;20482;-90
2023/04/19 10:24:35;;;;;;;2.63;2.00;;;12.60;80.60;;;;;;5002184;28;20799;-91
2023/04/19 10:27:13;;;;;;;1.00;0.90;;;12.80;82.10;;;;;;5002870;28;20471;-91
2023/04/19 10:29:59;;;;;;;1.40;1.30;;;13.00;80.90;;;;;;5005644;28;20184;-90
2023/04/19 10:32:29;;;;;;;1.80;1.60;;;13.10;80.10;;;;;;5023727;28;20474;-90
2023/04/19 10:35:00;;;;;;;1.03;0.90;;;13.10;81.00;;;;;;5014547;28;20571;-94
2023/04/19 10:37:26;;;;;;;1.57;1.37;;;13.20;81.80;;;;;;5003975;28;20521;-90
2023/04/19 10:39:51;;;;;;;1.03;0.93;;;13.30;80.80;;;;;;5002353;28;20441;-90
2023/04/19 10:42:17;;;;;;;6.13;1.83;;;13.40;80.50;;;;;;4994363;28;20186;-91
2023/04/19 10:45:34;;;;;;;1.57;1.47;;;13.30;80.30;;;;;;5017805;28;20189;-90
2023/04/19 10:48:02;;;;;;;0.93;0.83;;;13.30;81.20;;;;;;4967999;28;20209;-92
2023/04/19 10:50:27;;;;;;;4.60;2.13;;;12.90;78.80;;;;;;5005255;28;20445;-92
2023/04/19 10:52:53;;;;;;;0.97;0.87;;;12.70;81.70;;;;;;4998209;28;20432;-94
2023/04/19 10:55:19;;;;;;;0.83;0.73;;;12.70;82.50;;;;;;5006172;28;20705;-89
2023/04/19 10:58:05;;;;;;;2.43;1.50;;;12.90;82.30;;;;;;4994749;28;20587;-88
2023/04/19 11:00:32;;;;;;;1.33;1.23;;;13.20;82.50;;;;;;5004781;28;20952;-92
2023/04/19 11:03:40;;;;;;;2.37;2.17;;;13.30;80.30;;;;;;5000731;28;20436;-89
2023/04/19 11:06:17;;;;;;;1.63;1.63;;;13.40;81.00;;;;;;5016519;28;20832;-89
2023/04/19 11:08:44;;;;;;;0.90;0.80;;;13.50;79.40;;;;;;5000600;28;21012;-89
2023/04/19 11:11:09;;;;;;;1.23;1.13;;;13.40;79.20;;;;;;5007494;28;20566;-88
2023/04/19 11:13:36;;;;;;;4.00;2.37;;;13.50;79.40;;;;;;4991949;28;20504;-90
2023/04/19 11:16:07;;;;;;;1.20;1.10;;;13.80;79.70;;;;;;4998581;28;20281;-90
2023/04/19 11:18:32;;;;;;;1.30;1.07;;;13.90;78.80;;;;;;4994028;28;20509;-90
2023/04/19 11:20:59;;;;;;;2.77;1.27;;;13.90;77.40;;;;;;4988992;28;20945;-90
2023/04/19 11:23:25;;;;;;;2.03;1.57;;;13.80;79.50;;;;;;4991988;28;20185;-92
2023/04/19 11:25:52;;;;;;;1.03;1.00;;;13.70;79.00;;;;;;5020385;28;20482;-90
2023/04/19 11:28:17;;;;;;;3.50;2.40;;;13.40;79.10;;;;;;5003964;28;20197;-91
2023/04/19 11:30:43;;;;;;;1.30;1.20;;;13.10;79.00;;;;;;5002910;28;20404;-89
2023/04/19 11:33:11;;;;;;;1.63;1.53;;;13.00;80.90;;;;;;5007086;28;20545;-90
2023/04/19 11:35:37;;;;;;;1.33;1.30;;;13.30;81.40;;;;;;4993557;28;20428;-89
2023/04/19 11:38:04;;;;;;;1.63;1.53;;;13.30;79.60;;;;;;5000493;28;20432;-89
2023/04/19 11:40:30;;;;;;;1.70;1.40;;;13.40;79.60;;;;;;4993865;28;20737;-89
2023/04/19 11:43:01;;;;;;;1.20;1.10;;;13.40;78.10;;;;;;4993396;28;20420;-89
2023/04/19 11:45:30;;;;;;;1.33;1.23;;;13.50;80.40;;;;;;5012173;28;20463;-88
2023/04/19 11:47:56;;;;;;;1.63;1.53;;;13.40;78.10;;;;;;5008778;28;20470;-86
2023/04/19 11:50:32;;;;;;;3.80;1.63;;;13.20;77.20;;;;;;4999575;28;20625;-89
2023/04/19 11:52:58;;;;;;;1.57;1.47;;;12.90;77.90;;;;;;5001220;28;20427;-88
2023/04/19 11:55:24;;;;;;;1.13;1.03;;;12.70;79.90;;;;;;5004437;28;20474;-88
2023/04/19 11:57:49;;;;;;;1.70;1.60;;;12.60;81.90;;;;;;5002017;28;20439;-88
2023/04/19 12:00:16;;;;;;;1.60;1.50;;;12.60;81.60;;;;;;5006023;28;20820;-88
2023/04/19 12:02:43;;;;;;;1.80;1.53;;;12.60;81.40;;;;;;4992673;28;20292;-88
2023/04/19 12:05:13;;;;;;;3.07;2.03;;;12.70;83.10;;;;;;5014473;28;20407;-88
2023/04/19 12:08:03;;;;;;;1.00;0.87;;;12.90;81.90;;;;;;4985649;28;20450;-88
2023/04/19 12:10:30;;;;;;;1.40;1.30;;;13.00;82.00;;;;;;4997557;28;20487;-90
2023/04/19 12:12:56;;;;;;;3.40;2.00;;;13.00;80.70;;;;;;5011101;28;20423;-88
2023/04/19 12:15:21;;;;;;;1.90;1.87;;;12.90;81.20;;;;;;5014729;28;20416;-88
2023/04/19 12:18:01;;;;;;;3.70;1.80;;;12.40;84.60;;;;;;5013986;28;20685;-88
2023/04/19 12:20:35;;;;;;;1.50;1.40;;;11.80;86.20;;;;;;5010798;28;20212;-88
2023/04/19 12:23:01;;;;;;;1.67;1.57;;;11.50;89.20;;;;;;4988456;28;20845;-89
2023/04/19 12:25:32;;;;;;;1.03;0.93;;;11.40;90.70;;;;;;4989650;28;20560;-89
2023/04/19 12:27:58;;;;;;;3.70;1.83;;;11.40;90.90;;;;;;4979393;28;20438;-90
2023/04/19 12:30:23;;;;;;;2.20;1.77;;;11.50;91.10;;;;;;5014853;28;20428;-89
2023/04/19 12:32:51;;;;;;;2.40;2.20;;;11.70;91.80;;;;;;4993907;28;20413;-90
2023/04/19 12:35:17;;;;;;;1.30;1.30;;;11.90;89.60;;;;;;4996849;28;20177;-91
2023/04/19 12:37:42;;;;;;;1.40;1.17;;;12.20;89.10;;;;;;5001187;28;20516;-90
2023/04/19 12:40:12;;;;;;;1.20;1.10;;;12.70;89.20;;;;;;4999172;28;20185;-89
2023/04/19 12:42:37;;;;;;;1.80;1.70;;;13.30;86.50;;;;;;4996952;28;20185;-92
2023/04/19 12:45:05;;;;;;;1.90;1.80;;;13.60;82.50;;;;;;5003971;28;20424;-89
2023/04/19 12:47:31;;;;;;;3.67;1.53;;;14.00;82.40;;;;;;4999543;28;20573;-91
2023/04/19 12:49:56;;;;;;;1.20;1.10;;;14.40;82.20;;;;;;4995117;28;20420;-89
2023/04/19 12:52:22;;;;;;;1.93;1.43;;;14.70;81.50;;;;;;4994883;28;20674;-89
2023/04/19 12:54:48;;;;;;;1.30;1.20;;;15.00;79.60;;;;;;5003672;28;20614;-90
2023/04/19 12:57:14;;;;;;;2.10;1.30;;;15.00;77.70;;;;;;4997119;28;20471;-90